Annapolis, California
Current Conditions -  °F | °C
As of 4:56 PM on Saturday 25 Oct 2014 (Local Time) from KUKI Reporting Station
Light Rain Light Rain  
Wind Chill: 60°   Ceiling: 2900
Heat Index: 60°   Visibility: 7mi
Dew Point: 54°   Wind: 6mph
Humidity: 80%   Direction: 160°SSE
Pressure: 30.02"   Gusts: NA
Location:  38.71°N, 123.35°W
Report Text: KUKI 252356Z AUTO 16005KT 7SM -RA BKN029 BKN038 OVC046 16/12 A3002 RMK AO2 RAB19 SLP162 P0000 60012 T01560122 10178 20150 53007
Loading
Personal Weather Stations






























Interactive Weather Map
Tropical Storm Tracking
New forecast layout! Learn more

10-Day Weather Forecast

Advertisements
Track Severe Weather on mobile